Time;durP1;ratioP1;P1;durP2;ratioP2;P2;SDS_P1;SDS_P2;PMS_P1;PMS_P2;Temp;Humidity;BMP_temperature;BMP_pressure;BME280_temperature;BME280_humidity;BME280_pressure;Samples;Min_cycle;Max_cycle;Signal;HPM_P1;HPM_P2
2023/06/21 00:00:36;;;;;;;11.88;11.27;;;;;;;;;;4993141;28;20145;-63
2023/06/21 00:03:01;;;;;;;12.20;11.60;;;;;;;;;;4995597;28;20080;-62
2023/06/21 00:05:26;;;;;;;13.73;13.02;;;;;;;;;;4993139;28;20021;-63
2023/06/21 00:07:54;;;;;;;11.98;11.40;;;;;;;;;;4994315;28;20035;-63
2023/06/21 00:10:23;;;;;;;12.27;11.68;;;;;;;;;;4990679;28;20030;-63
2023/06/21 00:12:55;;;;;;;11.95;11.38;;;;;;;;;;4995451;28;20023;-63
2023/06/21 00:15:20;;;;;;;12.57;11.98;;;;;;;;;;4993106;28;20073;-63
2023/06/21 00:17:46;;;;;;;12.15;11.55;;;;;;;;;;4991273;28;20018;-64
2023/06/21 00:20:11;;;;;;;11.77;11.27;;;;;;;;;;4993332;28;20474;-64
2023/06/21 00:22:37;;;;;;;12.30;11.70;;;;;;;;;;4992346;28;20023;-64
2023/06/21 00:25:03;;;;;;;12.27;11.68;;;;;;;;;;4999762;28;20026;-63
2023/06/21 00:27:28;;;;;;;12.63;12.02;;;;;;;;;;4993441;28;20046;-63
2023/06/21 00:29:53;;;;;;;12.60;12.00;;;;;;;;;;4990590;28;20018;-64
2023/06/21 00:32:19;;;;;;;12.45;11.85;;;;;;;;;;4990818;28;20086;-64
2023/06/21 00:34:46;;;;;;;12.57;11.98;;;;;;;;;;4994060;28;20489;-63
2023/06/21 00:37:12;;;;;;;11.50;11.00;;;;;;;;;;4992266;28;20022;-63
2023/06/21 00:39:38;;;;;;;12.40;11.80;;;;;;;;;;4998324;28;20489;-64
2023/06/21 00:42:04;;;;;;;12.20;11.60;;;;;;;;;;4987498;28;20360;-63
2023/06/21 00:44:29;;;;;;;12.30;11.70;;;;;;;;;;4992688;28;20022;-63
2023/06/21 00:46:54;;;;;;;12.50;11.90;;;;;;;;;;4986162;28;20018;-64
2023/06/21 00:49:19;;;;;;;12.02;11.48;;;;;;;;;;4992218;28;20441;-64
2023/06/21 00:51:45;;;;;;;12.15;11.55;;;;;;;;;;4987636;28;20038;-64
2023/06/21 00:54:16;;;;;;;11.80;11.30;;;;;;;;;;4991313;28;20022;-62
2023/06/21 00:56:42;;;;;;;12.43;11.82;;;;;;;;;;4990271;28;20028;-63
2023/06/21 00:59:07;;;;;;;12.35;11.75;;;;;;;;;;4993348;28;20742;-62
2023/06/21 01:01:34;;;;;;;12.70;12.10;;;;;;;;;;4992240;28;20033;-64
2023/06/21 01:04:00;;;;;;;12.55;11.95;;;;;;;;;;4993395;28;20386;-64
2023/06/21 01:06:45;;;;;;;12.55;11.95;;;;;;;;;;4992126;28;20489;-63
2023/06/21 01:09:33;;;;;;;11.95;11.35;;;;;;;;;;4976984;28;20037;-63
2023/06/21 01:12:20;;;;;;;12.63;12.02;;;;;;;;;;4990427;28;20045;-63
2023/06/21 01:14:55;;;;;;;12.13;11.55;;;;;;;;;;4991212;28;20390;-63
2023/06/21 01:17:21;;;;;;;11.93;11.40;;;;;;;;;;4993280;28;20022;-63
2023/06/21 01:19:52;;;;;;;12.15;11.55;;;;;;;;;;4990107;28;20455;-63
2023/06/21 01:22:21;;;;;;;12.40;11.80;;;;;;;;;;4990691;28;20091;-64
2023/06/21 01:25:06;;;;;;;11.70;11.20;;;;;;;;;;4986328;28;20466;-64
2023/06/21 01:27:32;;;;;;;12.45;11.85;;;;;;;;;;4986456;28;20042;-64
2023/06/21 01:29:59;;;;;;;12.32;11.73;;;;;;;;;;4992968;28;20417;-64
2023/06/21 01:32:27;;;;;;;12.45;11.85;;;;;;;;;;4989733;28;20034;-64
2023/06/21 01:34:53;;;;;;;12.68;12.07;;;;;;;;;;4985221;28;20037;-64
2023/06/21 01:37:19;;;;;;;12.07;11.48;;;;;;;;;;4992752;28;20034;-64
2023/06/21 01:39:44;;;;;;;11.88;11.38;;;;;;;;;;4988934;28;20390;-63
2023/06/21 01:42:10;;;;;;;12.38;11.77;;;;;;;;;;4990373;28;20839;-64
2023/06/21 01:44:35;;;;;;;12.40;11.80;;;;;;;;;;4993140;28;20542;-62
2023/06/21 01:47:00;;;;;;;11.82;11.30;;;;;;;;;;4992752;28;20097;-63
2023/06/21 01:49:27;;;;;;;12.70;12.10;;;;;;;;;;4992530;28;20389;-63
2023/06/21 01:51:53;;;;;;;12.25;11.65;;;;;;;;;;4989023;28;20030;-64
2023/06/21 01:54:20;;;;;;;11.90;11.40;;;;;;;;;;4992559;28;20020;-64
2023/06/21 01:56:46;;;;;;;12.85;12.25;;;;;;;;;;4983218;28;20019;-64
2023/06/21 01:59:12;;;;;;;11.88;11.38;;;;;;;;;;4991248;28;20117;-63
2023/06/21 02:01:42;;;;;;;12.50;11.90;;;;;;;;;;4993807;28;20481;-63
2023/06/21 02:04:07;;;;;;;12.80;12.20;;;;;;;;;;4992224;28;20022;-63
2023/06/21 02:06:33;;;;;;;11.73;11.23;;;;;;;;;;4992166;28;20030;-64
2023/06/21 02:08:59;;;;;;;12.25;11.65;;;;;;;;;;4984862;28;20027;-63
2023/06/21 02:11:26;;;;;;;12.60;12.00;;;;;;;;;;4991126;28;20022;-63
2023/06/21 02:13:54;;;;;;;12.57;11.98;;;;;;;;;;4992334;28;20053;-63
2023/06/21 02:16:30;;;;;;;11.70;11.20;;;;;;;;;;4990979;28;20033;-63
2023/06/21 02:18:55;;;;;;;12.63;12.02;;;;;;;;;;4990648;28;20096;-63
2023/06/21 02:21:21;;;;;;;12.43;11.82;;;;;;;;;;4987885;28;20027;-64
2023/06/21 02:23:46;;;;;;;12.07;11.50;;;;;;;;;;4992230;28;20069;-64
2023/06/21 02:26:12;;;;;;;12.35;11.75;;;;;;;;;;4991911;28;20018;-63
2023/06/21 02:28:37;;;;;;;12.20;11.60;;;;;;;;;;4992057;28;20056;-63
2023/06/21 02:31:02;;;;;;;12.27;11.68;;;;;;;;;;4992271;28;20440;-63
2023/06/21 02:33:33;;;;;;;12.82;12.23;;;;;;;;;;4990155;28;20396;-63
2023/06/21 02:35:58;;;;;;;12.25;11.65;;;;;;;;;;4990361;28;20062;-63
2023/06/21 02:38:27;;;;;;;12.85;12.25;;;;;;;;;;4991854;28;20516;-63
2023/06/21 02:40:52;;;;;;;11.82;11.32;;;;;;;;;;4991121;28;20054;-63
2023/06/21 02:43:18;;;;;;;11.88;11.35;;;;;;;;;;4992079;28;20076;-63
2023/06/21 02:45:43;;;;;;;11.93;11.40;;;;;;;;;;4990216;28;20026;-63
2023/06/21 02:48:08;;;;;;;11.77;11.20;;;;;;;;;;4983626;28;20018;-64
2023/06/21 02:50:34;;;;;;;12.10;11.50;;;;;;;;;;4991926;28;20015;-63
2023/06/21 02:52:59;;;;;;;12.25;11.65;;;;;;;;;;4991732;28;20482;-65
2023/06/21 02:55:24;;;;;;;12.40;11.80;;;;;;;;;;4990586;28;20061;-64
2023/06/21 02:57:49;;;;;;;11.90;11.40;;;;;;;;;;4992472;28;20496;-63
2023/06/21 03:00:31;;;;;;;11.52;11.02;;;;;;;;;;4992249;28;20081;-63
2023/06/21 03:03:00;;;;;;;12.20;11.60;;;;;;;;;;4991129;28;20026;-64
2023/06/21 03:05:26;;;;;;;13.93;13.23;;;;;;;;;;4988094;28;20486;-64
2023/06/21 03:07:52;;;;;;;11.80;11.30;;;;;;;;;;4982874;28;20255;-63
2023/06/21 03:10:19;;;;;;;12.40;11.80;;;;;;;;;;4988862;28;20207;-64
2023/06/21 03:12:45;;;;;;;12.02;11.52;;;;;;;;;;4990206;28;20018;-64
2023/06/21 03:15:10;;;;;;;12.25;11.68;;;;;;;;;;4991273;28;20037;-64
2023/06/21 03:17:36;;;;;;;12.45;11.85;;;;;;;;;;4986404;28;20030;-63
2023/06/21 03:20:03;;;;;;;12.75;12.15;;;;;;;;;;4989332;28;20034;-63
2023/06/21 03:22:28;;;;;;;12.93;12.32;;;;;;;;;;4981787;28;20202;-64
2023/06/21 03:24:53;;;;;;;12.10;11.60;;;;;;;;;;4994737;28;20105;-63
2023/06/21 03:27:19;;;;;;;12.32;11.73;;;;;;;;;;4987436;28;20058;-64
2023/06/21 03:29:44;;;;;;;13.23;12.63;;;;;;;;;;4984051;28;20034;-64
2023/06/21 03:32:09;;;;;;;12.10;11.60;;;;;;;;;;4996962;28;20148;-64
2023/06/21 03:34:35;;;;;;;12.07;11.57;;;;;;;;;;4999664;28;20034;-64
2023/06/21 03:37:00;;;;;;;12.35;11.77;;;;;;;;;;4994712;28;20057;-64
2023/06/21 03:39:25;;;;;;;12.50;11.90;;;;;;;;;;4994258;28;20108;-64
2023/06/21 03:41:51;;;;;;;12.20;11.70;;;;;;;;;;4993159;28;20391;-64
2023/06/21 03:44:16;;;;;;;11.83;11.33;;;;;;;;;;4994610;28;20591;-64
2023/06/21 03:46:41;;;;;;;12.10;11.60;;;;;;;;;;4988902;28;20363;-64
2023/06/21 03:49:07;;;;;;;12.02;11.52;;;;;;;;;;4992409;28;20096;-63
2023/06/21 03:51:32;;;;;;;11.90;11.40;;;;;;;;;;4995594;28;20030;-64
2023/06/21 03:53:57;;;;;;;12.07;11.57;;;;;;;;;;4991723;28;20283;-64
2023/06/21 03:56:23;;;;;;;11.60;11.10;;;;;;;;;;4994773;28;20029;-64
2023/06/21 03:58:48;;;;;;;11.93;11.43;;;;;;;;;;4994446;28;20647;-64
2023/06/21 04:01:13;;;;;;;11.60;11.10;;;;;;;;;;4994552;28;20266;-64
2023/06/21 04:03:39;;;;;;;11.90;11.40;;;;;;;;;;4983359;28;20097;-64
2023/06/21 04:06:04;;;;;;;12.15;11.65;;;;;;;;;;4986855;28;20438;-63
2023/06/21 04:08:29;;;;;;;12.45;11.85;;;;;;;;;;5000766;28;20036;-64
2023/06/21 04:10:55;;;;;;;11.80;11.30;;;;;;;;;;4994383;28;20030;-64
2023/06/21 04:13:21;;;;;;;12.07;11.57;;;;;;;;;;4990671;28;20289;-64
2023/06/21 04:15:46;;;;;;;12.30;11.80;;;;;;;;;;4993445;28;20034;-65
2023/06/21 04:18:11;;;;;;;12.50;11.90;;;;;;;;;;4991033;28;20053;-64
2023/06/21 04:20:37;;;;;;;12.17;11.67;;;;;;;;;;4986322;28;20027;-64
2023/06/21 04:23:02;;;;;;;12.35;11.80;;;;;;;;;;4990271;28;20362;-64
2023/06/21 04:25:28;;;;;;;12.40;11.85;;;;;;;;;;4982810;28;20018;-64
2023/06/21 04:27:54;;;;;;;12.10;11.60;;;;;;;;;;4987800;28;20190;-64
2023/06/21 04:30:19;;;;;;;12.10;11.60;;;;;;;;;;4989821;28;20029;-64
2023/06/21 04:32:45;;;;;;;12.10;11.60;;;;;;;;;;4993628;28;20026;-64
2023/06/21 04:35:14;;;;;;;12.20;11.70;;;;;;;;;;4997945;28;20034;-65
2023/06/21 04:37:44;;;;;;;12.20;11.70;;;;;;;;;;4986476;28;20036;-65
2023/06/21 04:40:10;;;;;;;12.27;11.77;;;;;;;;;;4995504;28;20478;-64
2023/06/21 04:42:36;;;;;;;12.00;11.50;;;;;;;;;;4982929;28;20485;-64
2023/06/21 04:45:01;;;;;;;12.10;11.60;;;;;;;;;;4994349;28;20101;-64
2023/06/21 04:47:26;;;;;;;12.10;11.60;;;;;;;;;;4987911;28;20279;-64
2023/06/21 04:49:53;;;;;;;11.93;11.43;;;;;;;;;;4979711;28;20261;-65
2023/06/21 04:52:18;;;;;;;12.20;11.70;;;;;;;;;;4981594;28;20096;-69
2023/06/21 04:54:44;;;;;;;12.02;11.52;;;;;;;;;;4987828;28;20034;-69
2023/06/21 04:57:12;;;;;;;11.88;11.38;;;;;;;;;;4990552;28;20045;-69
2023/06/21 04:59:37;;;;;;;11.68;11.18;;;;;;;;;;4985775;28;20034;-65
2023/06/21 05:02:03;;;;;;;11.97;11.47;;;;;;;;;;4984987;28;20022;-65
2023/06/21 05:04:28;;;;;;;11.63;11.13;;;;;;;;;;4982499;28;20271;-65
2023/06/21 05:06:53;;;;;;;11.90;11.40;;;;;;;;;;4987240;28;20095;-65
2023/06/21 05:09:18;;;;;;;11.90;11.40;;;;;;;;;;4977413;28;20026;-66
2023/06/21 05:11:44;;;;;;;11.77;11.27;;;;;;;;;;4992497;28;20256;-66
2023/06/21 05:14:10;;;;;;;11.87;11.37;;;;;;;;;;4986248;28;20010;-65
2023/06/21 05:16:35;;;;;;;11.60;11.10;;;;;;;;;;4972442;28;20380;-65
2023/06/21 05:19:00;;;;;;;12.75;12.15;;;;;;;;;;4988703;28;20507;-66
2023/06/21 05:21:26;;;;;;;12.00;11.50;;;;;;;;;;4992616;28;20022;-66
2023/06/21 05:23:51;;;;;;;12.50;11.90;;;;;;;;;;4992690;28;20260;-65
2023/06/21 05:26:16;;;;;;;11.87;11.37;;;;;;;;;;4989279;28;20030;-64
2023/06/21 05:28:41;;;;;;;12.10;11.60;;;;;;;;;;4978849;28;20756;-64
2023/06/21 05:31:07;;;;;;;11.97;11.47;;;;;;;;;;4997645;28;20145;-66
2023/06/21 05:33:32;;;;;;;11.83;11.33;;;;;;;;;;4991212;28;20808;-64
2023/06/21 05:35:57;;;;;;;11.90;11.40;;;;;;;;;;4998612;28;20085;-64
2023/06/21 05:38:24;;;;;;;11.80;11.30;;;;;;;;;;4991019;28;20284;-63
2023/06/21 05:40:50;;;;;;;11.60;11.10;;;;;;;;;;4992298;28;20497;-64
2023/06/21 05:43:15;;;;;;;11.90;11.40;;;;;;;;;;4989761;28;20264;-64
2023/06/21 05:45:40;;;;;;;12.30;11.80;;;;;;;;;;4988190;28;20037;-65
2023/06/21 05:48:05;;;;;;;11.90;11.40;;;;;;;;;;4986604;28;20101;-63
2023/06/21 05:50:31;;;;;;;11.43;10.93;;;;;;;;;;4986376;28;20034;-62
2023/06/21 05:52:57;;;;;;;12.30;11.80;;;;;;;;;;4986287;28;20264;-63
2023/06/21 05:55:22;;;;;;;12.10;11.60;;;;;;;;;;4980596;28;20042;-62
2023/06/21 05:57:47;;;;;;;12.13;11.63;;;;;;;;;;4982942;28;20026;-64
2023/06/21 06:00:13;;;;;;;12.93;12.32;;;;;;;;;;4984328;28;20286;-63
2023/06/21 06:02:38;;;;;;;12.57;11.98;;;;;;;;;;4985732;28;20213;-63
2023/06/21 06:05:04;;;;;;;11.73;11.23;;;;;;;;;;4988937;28;20046;-63
2023/06/21 06:07:29;;;;;;;11.73;11.23;;;;;;;;;;4991993;28;20073;-63
2023/06/21 06:09:55;;;;;;;11.70;11.20;;;;;;;;;;4992503;28;20022;-64
2023/06/21 06:12:21;;;;;;;11.80;11.30;;;;;;;;;;4993396;28;20030;-63
2023/06/21 06:14:47;;;;;;;11.90;11.40;;;;;;;;;;4990682;28;20100;-63
2023/06/21 06:17:12;;;;;;;11.80;11.30;;;;;;;;;;4991741;28;20121;-63
2023/06/21 06:19:37;;;;;;;11.90;11.40;;;;;;;;;;4990820;28;20026;-63
2023/06/21 06:22:03;;;;;;;12.10;11.60;;;;;;;;;;4980989;28;20138;-63
2023/06/21 06:24:28;;;;;;;11.80;11.30;;;;;;;;;;4986766;28;20045;-62
2023/06/21 06:26:54;;;;;;;11.90;11.40;;;;;;;;;;4986856;28;20088;-62
2023/06/21 06:29:19;;;;;;;11.93;11.43;;;;;;;;;;4983947;28;20038;-63
2023/06/21 06:31:44;;;;;;;11.75;11.25;;;;;;;;;;4989150;28;20033;-61
2023/06/21 06:34:09;;;;;;;11.67;11.17;;;;;;;;;;4983984;28;20030;-63
2023/06/21 06:36:35;;;;;;;11.70;11.20;;;;;;;;;;4982622;28;20080;-63
2023/06/21 06:39:00;;;;;;;11.83;11.33;;;;;;;;;;4985423;28;20022;-64
2023/06/21 06:41:27;;;;;;;11.67;11.17;;;;;;;;;;4985364;28;21114;-63
2023/06/21 06:43:52;;;;;;;12.10;11.60;;;;;;;;;;4986623;28;20010;-62
2023/06/21 06:46:17;;;;;;;11.70;11.20;;;;;;;;;;4990055;28;20033;-62
2023/06/21 06:48:43;;;;;;;12.10;11.60;;;;;;;;;;4980736;28;20030;-63
2023/06/21 06:51:08;;;;;;;11.83;11.33;;;;;;;;;;4983876;28;20280;-63
2023/06/21 06:53:33;;;;;;;11.90;11.40;;;;;;;;;;4984666;28;20057;-62
2023/06/21 06:55:59;;;;;;;11.60;11.10;;;;;;;;;;4987977;28;20027;-62
2023/06/21 06:58:25;;;;;;;11.65;11.15;;;;;;;;;;4995630;28;20264;-62
2023/06/21 07:00:50;;;;;;;11.93;11.43;;;;;;;;;;4989702;28;20061;-62
2023/06/21 07:03:16;;;;;;;12.00;11.50;;;;;;;;;;4987817;28;20037;-63
2023/06/21 07:05:45;;;;;;;12.10;11.60;;;;;;;;;;4986845;28;20025;-63
2023/06/21 07:08:11;;;;;;;11.80;11.30;;;;;;;;;;4985642;28;20065;-65
2023/06/21 07:10:37;;;;;;;11.80;11.30;;;;;;;;;;4991486;28;20069;-63
2023/06/21 07:13:02;;;;;;;12.63;12.02;;;;;;;;;;4988456;28;20048;-63
2023/06/21 07:15:27;;;;;;;11.88;11.38;;;;;;;;;;4986350;28;20077;-64
2023/06/21 07:17:53;;;;;;;12.98;12.38;;;;;;;;;;4979926;28;20039;-65
2023/06/21 07:20:18;;;;;;;12.83;12.23;;;;;;;;;;4986041;28;20029;-66
2023/06/21 07:22:43;;;;;;;12.60;12.00;;;;;;;;;;4993110;28;20018;-63
2023/06/21 07:25:08;;;;;;;12.20;11.70;;;;;;;;;;4987139;28;20276;-64
2023/06/21 07:27:34;;;;;;;13.35;12.75;;;;;;;;;;4985325;28;20054;-62
2023/06/21 07:29:59;;;;;;;12.43;11.88;;;;;;;;;;4987617;28;20031;-62
2023/06/21 07:32:24;;;;;;;12.30;11.80;;;;;;;;;;4991354;28;20026;-61
2023/06/21 07:34:52;;;;;;;12.55;11.95;;;;;;;;;;4987466;28;20264;-63
2023/06/21 07:37:18;;;;;;;12.25;11.75;;;;;;;;;;4993879;28;20464;-62
2023/06/21 07:39:44;;;;;;;12.90;12.30;;;;;;;;;;4994170;28;20035;-63
2023/06/21 07:42:09;;;;;;;12.77;12.17;;;;;;;;;;4994417;28;20010;-61
2023/06/21 07:44:34;;;;;;;12.30;11.70;;;;;;;;;;4995331;28;20679;-63
2023/06/21 07:47:00;;;;;;;12.90;12.30;;;;;;;;;;4990898;28;20101;-62
2023/06/21 07:49:25;;;;;;;12.95;12.35;;;;;;;;;;5003286;28;20264;-60
2023/06/21 07:51:50;;;;;;;12.30;11.70;;;;;;;;;;4996183;28;20030;-63
2023/06/21 07:54:16;;;;;;;12.63;12.03;;;;;;;;;;4995752;28;20104;-62
2023/06/21 07:56:41;;;;;;;12.80;12.20;;;;;;;;;;4995940;28;20260;-62
2023/06/21 07:59:07;;;;;;;12.40;11.80;;;;;;;;;;4998032;28;20023;-62
2023/06/21 08:01:32;;;;;;;13.27;12.67;;;;;;;;;;4994621;28;20556;-62
2023/06/21 08:03:59;;;;;;;13.02;12.43;;;;;;;;;;4998392;28;20240;-63
2023/06/21 08:06:25;;;;;;;12.57;11.98;;;;;;;;;;4997251;28;20138;-63
2023/06/21 08:08:51;;;;;;;12.95;12.35;;;;;;;;;;4993898;28;20526;-63
2023/06/21 08:11:17;;;;;;;12.60;12.00;;;;;;;;;;4994045;28;20441;-62
2023/06/21 08:13:42;;;;;;;12.70;12.10;;;;;;;;;;4997259;28;20042;-63
2023/06/21 08:16:07;;;;;;;13.70;13.10;;;;;;;;;;4993986;28;20034;-62
2023/06/21 08:18:34;;;;;;;12.55;11.95;;;;;;;;;;4993180;28;20026;-62
2023/06/21 08:20:59;;;;;;;12.38;11.77;;;;;;;;;;4994099;28;20126;-62
2023/06/21 08:23:24;;;;;;;12.40;11.80;;;;;;;;;;4993662;28;20064;-62
2023/06/21 08:25:50;;;;;;;12.50;11.90;;;;;;;;;;4991770;28;20282;-62
2023/06/21 08:28:15;;;;;;;12.75;12.15;;;;;;;;;;4993010;28;20050;-62
2023/06/21 08:30:40;;;;;;;11.90;11.40;;;;;;;;;;4994313;28;20038;-63
2023/06/21 08:33:05;;;;;;;12.27;11.68;;;;;;;;;;4993004;28;20108;-61
2023/06/21 08:35:31;;;;;;;12.32;11.73;;;;;;;;;;4993898;28;20112;-63
2023/06/21 08:37:59;;;;;;;12.30;11.70;;;;;;;;;;4993817;28;20404;-62
2023/06/21 08:40:26;;;;;;;12.02;11.52;;;;;;;;;;4994101;28;20022;-63
2023/06/21 08:42:51;;;;;;;12.88;12.27;;;;;;;;;;4993889;28;20030;-62
2023/06/21 08:45:17;;;;;;;12.52;11.93;;;;;;;;;;4993815;28;20025;-62
2023/06/21 08:47:42;;;;;;;11.47;10.97;;;;;;;;;;4993626;28;20838;-62
2023/06/21 08:50:09;;;;;;;12.18;11.60;;;;;;;;;;4989972;28;20276;-62
2023/06/21 08:52:35;;;;;;;12.23;11.63;;;;;;;;;;4992260;28;20022;-63
2023/06/21 08:55:03;;;;;;;12.52;11.93;;;;;;;;;;4993324;28;20022;-62
2023/06/21 08:57:31;;;;;;;11.98;11.48;;;;;;;;;;4990635;28;20485;-63
2023/06/21 08:59:59;;;;;;;12.32;11.73;;;;;;;;;;4986926;28;20062;-62
2023/06/21 09:02:33;;;;;;;12.68;12.07;;;;;;;;;;4992910;28;20027;-62
2023/06/21 09:05:00;;;;;;;12.07;11.52;;;;;;;;;;4993222;28;20028;-62
2023/06/21 09:07:26;;;;;;;12.50;11.90;;;;;;;;;;4984518;28;20089;-62
2023/06/21 09:09:54;;;;;;;12.30;11.70;;;;;;;;;;4989899;28;20022;-62
2023/06/21 09:12:19;;;;;;;12.95;12.35;;;;;;;;;;4985999;28;20447;-63
2023/06/21 09:14:44;;;;;;;12.75;12.15;;;;;;;;;;4991408;28;20145;-62
2023/06/21 09:17:11;;;;;;;11.57;11.07;;;;;;;;;;4993378;28;20393;-61
2023/06/21 09:19:36;;;;;;;11.70;11.20;;;;;;;;;;4990676;28;20022;-62
2023/06/21 09:22:02;;;;;;;12.13;11.52;;;;;;;;;;4984322;28;20033;-63
2023/06/21 09:24:27;;;;;;;12.00;11.50;;;;;;;;;;4991443;28;20494;-61
2023/06/21 09:26:53;;;;;;;11.80;11.30;;;;;;;;;;4989035;28;20121;-61
2023/06/21 09:29:18;;;;;;;12.02;11.52;;;;;;;;;;4989005;28;20397;-62
2023/06/21 09:31:44;;;;;;;11.95;11.43;;;;;;;;;;4992888;28;20474;-62
2023/06/21 09:34:09;;;;;;;12.52;11.93;;;;;;;;;;4990199;28;20394;-61
2023/06/21 09:36:35;;;;;;;12.40;11.80;;;;;;;;;;4983281;28;20101;-62
2023/06/21 09:39:08;;;;;;;11.85;11.35;;;;;;;;;;4992234;28;20386;-60
2023/06/21 09:41:33;;;;;;;12.35;11.75;;;;;;;;;;4986023;28;20431;-62
2023/06/21 09:43:58;;;;;;;12.20;11.60;;;;;;;;;;4991997;28;20102;-61
2023/06/21 09:46:24;;;;;;;12.38;11.77;;;;;;;;;;4981451;28;20026;-62
2023/06/21 09:48:49;;;;;;;12.50;11.90;;;;;;;;;;4989956;28;20478;-61
2023/06/21 09:51:15;;;;;;;12.02;11.52;;;;;;;;;;4989517;28;20335;-62
2023/06/21 09:53:44;;;;;;;12.48;11.88;;;;;;;;;;4987890;28;20065;-62
2023/06/21 09:56:11;;;;;;;12.23;11.65;;;;;;;;;;4991866;28;20036;-62
2023/06/21 09:58:40;;;;;;;11.80;11.30;;;;;;;;;;4991904;28;20527;-63
2023/06/21 10:01:06;;;;;;;12.77;12.18;;;;;;;;;;4991151;28;20495;-62
2023/06/21 10:03:32;;;;;;;12.43;11.82;;;;;;;;;;4988054;28;20097;-62
2023/06/21 10:05:59;;;;;;;12.50;11.90;;;;;;;;;;4990612;28;20015;-63
2023/06/21 10:08:25;;;;;;;12.50;11.90;;;;;;;;;;4986970;28;20029;-61
2023/06/21 10:10:51;;;;;;;11.70;11.20;;;;;;;;;;4990723;28;20478;-63
2023/06/21 10:13:16;;;;;;;12.38;11.77;;;;;;;;;;4983242;28;20026;-63
2023/06/21 10:15:46;;;;;;;12.55;11.95;;;;;;;;;;4981682;28;20020;-62
2023/06/21 10:18:12;;;;;;;12.25;11.65;;;;;;;;;;4991568;28;20110;-62
2023/06/21 10:20:38;;;;;;;13.00;12.40;;;;;;;;;;4982152;28;20109;-62
2023/06/21 10:23:04;;;;;;;12.57;11.98;;;;;;;;;;4983332;28;20397;-62
2023/06/21 10:25:30;;;;;;;12.20;11.60;;;;;;;;;;4991924;28;20039;-62
2023/06/21 10:27:58;;;;;;;12.45;11.85;;;;;;;;;;4991107;28;20573;-62
2023/06/21 10:30:25;;;;;;;12.98;12.38;;;;;;;;;;4991461;28;20376;-62
2023/06/21 10:32:51;;;;;;;12.48;11.88;;;;;;;;;;4991502;28;20034;-61
2023/06/21 10:35:19;;;;;;;12.40;11.80;;;;;;;;;;4991469;28;20389;-62
2023/06/21 10:37:50;;;;;;;12.93;12.32;;;;;;;;;;4991293;28;20022;-62
2023/06/21 10:40:16;;;;;;;12.98;12.38;;;;;;;;;;4991461;28;20014;-61
2023/06/21 10:42:42;;;;;;;11.95;11.45;;;;;;;;;;4990351;28;20014;-65
2023/06/21 10:45:09;;;;;;;12.63;12.02;;;;;;;;;;5000515;28;20023;-63
2023/06/21 10:47:35;;;;;;;12.57;11.98;;;;;;;;;;4994703;28;20031;-63
2023/06/21 10:50:00;;;;;;;13.27;12.68;;;;;;;;;;4995493;28;20081;-63
2023/06/21 10:52:26;;;;;;;13.13;12.52;;;;;;;;;;4994551;28;20026;-62
2023/06/21 10:55:02;;;;;;;12.32;11.73;;;;;;;;;;4995041;28;20041;-63
2023/06/21 10:57:28;;;;;;;12.20;11.60;;;;;;;;;;4996271;28;20037;-62
2023/06/21 10:59:59;;;;;;;12.35;11.75;;;;;;;;;;5001947;28;20097;-62
2023/06/21 11:02:24;;;;;;;12.20;11.60;;;;;;;;;;4994708;28;20022;-62
2023/06/21 11:05:08;;;;;;;11.95;11.45;;;;;;;;;;4995274;28;20114;-62
2023/06/21 11:07:33;;;;;;;11.65;11.15;;;;;;;;;;4994468;28;20023;-63
2023/06/21 11:10:02;;;;;;;12.20;11.60;;;;;;;;;;4995004;28;20035;-62
2023/06/21 11:12:28;;;;;;;12.43;11.82;;;;;;;;;;4991429;28;20034;-62
2023/06/21 11:14:54;;;;;;;12.13;11.55;;;;;;;;;;4994744;28;20030;-61
2023/06/21 11:17:23;;;;;;;12.55;11.95;;;;;;;;;;4994815;28;20102;-62
2023/06/21 11:19:48;;;;;;;12.40;11.80;;;;;;;;;;4994625;28;20026;-62
2023/06/21 11:22:17;;;;;;;12.00;11.47;;;;;;;;;;4994906;28;20363;-62
2023/06/21 11:24:49;;;;;;;12.48;11.88;;;;;;;;;;4995030;28;20252;-63
2023/06/21 11:27:14;;;;;;;12.93;12.32;;;;;;;;;;4991113;28;20038;-62
2023/06/21 11:29:40;;;;;;;12.43;11.82;;;;;;;;;;4994507;28;20042;-62
2023/06/21 11:32:15;;;;;;;12.15;11.55;;;;;;;;;;4991463;28;20026;-62
2023/06/21 11:34:53;;;;;;;12.10;11.55;;;;;;;;;;4992771;28;20032;-62
2023/06/21 11:37:40;;;;;;;11.57;11.07;;;;;;;;;;4999664;28;20374;-62
2023/06/21 11:40:06;;;;;;;12.60;12.00;;;;;;;;;;4989995;28;20662;-63
2023/06/21 11:42:33;;;;;;;12.18;11.60;;;;;;;;;;4992927;28;20017;-61
2023/06/21 11:45:16;;;;;;;12.07;11.52;;;;;;;;;;4994677;28;20026;-63
2023/06/21 11:47:56;;;;;;;11.73;11.23;;;;;;;;;;4991437;28;20029;-62
2023/06/21 11:50:30;;;;;;;11.98;11.48;;;;;;;;;;4999136;28;20030;-63
2023/06/21 11:52:55;;;;;;;11.93;11.40;;;;;;;;;;4982517;28;20050;-63
2023/06/21 11:55:21;;;;;;;11.85;11.35;;;;;;;;;;4994558;28;20738;-61
2023/06/21 11:57:46;;;;;;;11.75;11.25;;;;;;;;;;4987651;28;20482;-61
2023/06/21 12:00:12;;;;;;;11.43;10.93;;;;;;;;;;4991549;28;20022;-63
2023/06/21 12:02:37;;;;;;;11.73;11.23;;;;;;;;;;4994365;28;20030;-62
2023/06/21 12:05:03;;;;;;;12.87;12.27;;;;;;;;;;4995869;28;20061;-62
2023/06/21 12:07:28;;;;;;;12.70;12.10;;;;;;;;;;4994039;28;20739;-62
2023/06/21 12:09:54;;;;;;;12.35;11.75;;;;;;;;;;4991779;28;20037;-62
2023/06/21 12:12:19;;;;;;;11.93;11.43;;;;;;;;;;4994184;28;20026;-62
2023/06/21 12:14:44;;;;;;;12.27;11.68;;;;;;;;;;4986211;28;20093;-62
2023/06/21 12:17:14;;;;;;;12.15;11.55;;;;;;;;;;4992337;28;20555;-61
2023/06/21 12:19:40;;;;;;;11.63;11.13;;;;;;;;;;4992362;28;20026;-62
2023/06/21 12:22:05;;;;;;;12.35;11.75;;;;;;;;;;4992959;28;20504;-64
2023/06/21 12:24:32;;;;;;;12.25;11.65;;;;;;;;;;4986143;28;20026;-62
2023/06/21 12:26:58;;;;;;;11.80;11.30;;;;;;;;;;4993264;28;20069;-61
2023/06/21 12:29:24;;;;;;;12.20;11.60;;;;;;;;;;4988756;28;20037;-63
2023/06/21 12:31:49;;;;;;;12.13;11.55;;;;;;;;;;4993583;28;20022;-61
2023/06/21 12:34:15;;;;;;;11.68;11.18;;;;;;;;;;4992304;28;20109;-63
2023/06/21 12:36:42;;;;;;;11.85;11.35;;;;;;;;;;4993211;28;20022;-62
2023/06/21 12:39:08;;;;;;;12.05;11.50;;;;;;;;;;4993757;28;20018;-63
2023/06/21 12:41:34;;;;;;;12.43;11.82;;;;;;;;;;4992270;28;20045;-62
2023/06/21 12:44:00;;;;;;;12.13;11.57;;;;;;;;;;4988728;28;20417;-62
2023/06/21 12:46:26;;;;;;;11.60;11.10;;;;;;;;;;4993688;28;20046;-62
2023/06/21 12:48:52;;;;;;;12.20;11.60;;;;;;;;;;4993647;28;20030;-61
2023/06/21 12:51:25;;;;;;;12.48;11.88;;;;;;;;;;4993339;28;20045;-62
2023/06/21 12:54:14;;;;;;;12.43;11.82;;;;;;;;;;4993220;28;20035;-62
2023/06/21 12:56:40;;;;;;;12.00;11.50;;;;;;;;;;4987422;28;20130;-63
2023/06/21 12:59:06;;;;;;;12.70;12.10;;;;;;;;;;4993241;28;20022;-62
2023/06/21 13:01:32;;;;;;;12.80;12.20;;;;;;;;;;4992858;28;20030;-61
2023/06/21 13:03:58;;;;;;;12.52;11.93;;;;;;;;;;4994989;28;20137;-62
2023/06/21 13:06:27;;;;;;;13.27;12.68;;;;;;;;;;4992733;28;20081;-62
2023/06/21 13:08:52;;;;;;;11.90;11.40;;;;;;;;;;4992950;28;20046;-61
2023/06/21 13:11:18;;;;;;;13.10;12.50;;;;;;;;;;4992965;28;20382;-62
2023/06/21 13:13:43;;;;;;;12.27;11.68;;;;;;;;;;4993401;28;20034;-63
2023/06/21 13:16:12;;;;;;;12.73;12.13;;;;;;;;;;4993160;28;20381;-64
2023/06/21 13:18:44;;;;;;;12.07;11.55;;;;;;;;;;4993090;28;20080;-62
2023/06/21 13:21:09;;;;;;;12.32;11.73;;;;;;;;;;4988993;28;20665;-62
2023/06/21 13:23:35;;;;;;;12.32;11.73;;;;;;;;;;4995299;28;20081;-63
2023/06/21 13:26:00;;;;;;;12.48;11.88;;;;;;;;;;4990278;28;20026;-62
2023/06/21 13:28:26;;;;;;;12.13;11.60;;;;;;;;;;4989708;28;20043;-62
2023/06/21 13:30:51;;;;;;;11.95;11.45;;;;;;;;;;4990556;28;20394;-63
2023/06/21 13:33:16;;;;;;;11.60;11.10;;;;;;;;;;4985097;28;20526;-62
2023/06/21 13:35:42;;;;;;;11.40;10.90;;;;;;;;;;4989241;28;20026;-61
2023/06/21 13:38:08;;;;;;;11.77;11.27;;;;;;;;;;4992563;28;20496;-63
2023/06/21 13:40:33;;;;;;;11.85;11.35;;;;;;;;;;4992500;28;20084;-61
2023/06/21 13:42:58;;;;;;;11.70;11.20;;;;;;;;;;4991933;28;20025;-62
2023/06/21 13:45:23;;;;;;;11.88;11.38;;;;;;;;;;4992659;28;20029;-62
2023/06/21 13:47:49;;;;;;;11.90;11.40;;;;;;;;;;4992635;28;20023;-62
2023/06/21 13:50:14;;;;;;;12.60;12.00;;;;;;;;;;4991662;28;20022;-62
2023/06/21 13:52:39;;;;;;;12.95;12.35;;;;;;;;;;4987830;28;20557;-62
2023/06/21 13:55:06;;;;;;;12.10;11.50;;;;;;;;;;4992201;28;20097;-62
2023/06/21 13:57:31;;;;;;;11.65;11.15;;;;;;;;;;4999021;28;20256;-62
2023/06/21 13:59:57;;;;;;;12.40;11.80;;;;;;;;;;4997467;28;20113;-62
2023/06/21 14:02:23;;;;;;;12.30;11.70;;;;;;;;;;4992371;28;20093;-62
2023/06/21 14:04:49;;;;;;;12.07;11.50;;;;;;;;;;4997636;28;20378;-62
2023/06/21 14:07:14;;;;;;;11.88;11.38;;;;;;;;;;4991957;28;20033;-63
2023/06/21 14:09:44;;;;;;;12.05;11.50;;;;;;;;;;4989372;28;20390;-62
2023/06/21 14:12:10;;;;;;;11.38;10.88;;;;;;;;;;4990140;28;20565;-62